sensor_id;sensor_type;location;lat;lon;timestamp;temperature;humidity
52879;DHT22;38747;53.140;6.498;2023-02-15T00:01:17;0.50;99.90
52879;DHT22;38747;53.140;6.498;2023-02-15T00:03:43;0.40;99.90
52879;DHT22;38747;53.140;6.498;2023-02-15T00:06:08;0.40;99.90
52879;DHT22;38747;53.140;6.498;2023-02-15T00:08:34;0.30;99.90
52879;DHT22;38747;53.140;6.498;2023-02-15T00:11:13;0.30;99.90
52879;DHT22;38747;53.140;6.498;2023-02-15T00:13:39;0.30;99.90
52879;DHT22;38747;53.140;6.498;2023-02-15T00:16:12;0.20;99.90
52879;DHT22;38747;53.140;6.498;2023-02-15T00:18:41;0.20;99.90
52879;DHT22;38747;53.140;6.498;2023-02-15T00:21:09;0.30;99.90
52879;DHT22;38747;53.140;6.498;2023-02-15T00:23:35;0.30;99.90
52879;DHT22;38747;53.140;6.498;2023-02-15T00:26:06;0.30;99.90
52879;DHT22;38747;53.140;6.498;2023-02-15T00:28:32;0.30;99.90
52879;DHT22;38747;53.140;6.498;2023-02-15T00:31:06;0.30;99.90
52879;DHT22;38747;53.140;6.498;2023-02-15T00:33:32;0.20;99.90
52879;DHT22;38747;53.140;6.498;2023-02-15T00:35:59;0.20;99.90
52879;DHT22;38747;53.140;6.498;2023-02-15T00:38:26;0.10;99.90
52879;DHT22;38747;53.140;6.498;2023-02-15T00:40:54;0.10;99.90
52879;DHT22;38747;53.140;6.498;2023-02-15T00:43:19;0.10;99.90
52879;DHT22;38747;53.140;6.498;2023-02-15T00:45:46;0.00;99.90
52879;DHT22;38747;53.140;6.498;2023-02-15T00:48:11;0.10;99.90
52879;DHT22;38747;53.140;6.498;2023-02-15T00:50:37;0.10;99.90
52879;DHT22;38747;53.140;6.498;2023-02-15T00:53:03;0.10;99.90
52879;DHT22;38747;53.140;6.498;2023-02-15T00:55:28;0.00;99.90
52879;DHT22;38747;53.140;6.498;2023-02-15T00:57:54;0.00;99.90
52879;DHT22;38747;53.140;6.498;2023-02-15T01:00:19;0.00;99.90
52879;DHT22;38747;53.140;6.498;2023-02-15T01:02:45;0.00;99.90
52879;DHT22;38747;53.140;6.498;2023-02-15T01:05:11;0.00;99.90
52879;DHT22;38747;53.140;6.498;2023-02-15T01:07:36;-0.10;99.90
52879;DHT22;38747;53.140;6.498;2023-02-15T01:10:02;-0.10;99.90
52879;DHT22;38747;53.140;6.498;2023-02-15T01:12:28;-0.10;99.90
52879;DHT22;38747;53.140;6.498;2023-02-15T01:14:53;-0.10;99.90
52879;DHT22;38747;53.140;6.498;2023-02-15T01:17:19;-0.20;99.90
52879;DHT22;38747;53.140;6.498;2023-02-15T01:19:45;-0.10;99.90
52879;DHT22;38747;53.140;6.498;2023-02-15T01:22:10;-0.20;99.90
52879;DHT22;38747;53.140;6.498;2023-02-15T01:24:36;-0.10;99.90
52879;DHT22;38747;53.140;6.498;2023-02-15T01:27:01;-0.10;99.90
52879;DHT22;38747;53.140;6.498;2023-02-15T01:29:27;-0.20;99.90
52879;DHT22;38747;53.140;6.498;2023-02-15T01:31:52;-0.10;99.90
52879;DHT22;38747;53.140;6.498;2023-02-15T01:34:18;-0.10;99.90
52879;DHT22;38747;53.140;6.498;2023-02-15T01:36:44;-0.20;99.90
52879;DHT22;38747;53.140;6.498;2023-02-15T01:39:09;-0.20;99.90
52879;DHT22;38747;53.140;6.498;2023-02-15T01:41:36;-0.20;99.90
52879;DHT22;38747;53.140;6.498;2023-02-15T01:44:02;-0.30;99.90
52879;DHT22;38747;53.140;6.498;2023-02-15T01:46:40;-0.30;99.90
52879;DHT22;38747;53.140;6.498;2023-02-15T01:49:13;-0.30;99.90
52879;DHT22;38747;53.140;6.498;2023-02-15T01:51:41;-0.40;99.90
52879;DHT22;38747;53.140;6.498;2023-02-15T01:54:15;-0.30;99.90
52879;DHT22;38747;53.140;6.498;2023-02-15T01:56:41;-0.40;99.90
52879;DHT22;38747;53.140;6.498;2023-02-15T01:59:13;-0.40;99.90
52879;DHT22;38747;53.140;6.498;2023-02-15T02:01:40;-0.30;99.90
52879;DHT22;38747;53.140;6.498;2023-02-15T02:04:25;-0.30;99.90
52879;DHT22;38747;53.140;6.498;2023-02-15T02:06:57;-0.40;99.90
52879;DHT22;38747;53.140;6.498;2023-02-15T02:09:23;-0.50;99.90
52879;DHT22;38747;53.140;6.498;2023-02-15T02:11:49;-0.50;99.90
52879;DHT22;38747;53.140;6.498;2023-02-15T02:14:16;-0.60;99.90
52879;DHT22;38747;53.140;6.498;2023-02-15T02:36:31;-0.50;99.90
52879;DHT22;38747;53.140;6.498;2023-02-15T02:44:43;-0.50;99.90
52879;DHT22;38747;53.140;6.498;2023-02-15T02:49:57;-0.60;99.90
52879;DHT22;38747;53.140;6.498;2023-02-15T02:52:40;-0.60;99.90
52879;DHT22;38747;53.140;6.498;2023-02-15T02:55:13;-0.60;99.90
52879;DHT22;38747;53.140;6.498;2023-02-15T06:53:32;-0.90;99.90
52879;DHT22;38747;53.140;6.498;2023-02-15T06:56:05;-0.90;99.90
52879;DHT22;38747;53.140;6.498;2023-02-15T06:58:41;-0.80;99.90
52879;DHT22;38747;53.140;6.498;2023-02-15T07:01:07;-0.90;99.90
52879;DHT22;38747;53.140;6.498;2023-02-15T07:03:34;-0.90;99.90
52879;DHT22;38747;53.140;6.498;2023-02-15T07:06:02;-0.90;99.90
52879;DHT22;38747;53.140;6.498;2023-02-15T07:08:29;-0.90;99.90
52879;DHT22;38747;53.140;6.498;2023-02-15T07:10:55;-0.90;99.90
52879;DHT22;38747;53.140;6.498;2023-02-15T07:13:44;-0.80;99.90
52879;DHT22;38747;53.140;6.498;2023-02-15T07:16:10;-0.80;99.90
52879;DHT22;38747;53.140;6.498;2023-02-15T07:18:36;-0.80;99.90
52879;DHT22;38747;53.140;6.498;2023-02-15T07:21:02;-0.80;99.90
52879;DHT22;38747;53.140;6.498;2023-02-15T07:23:28;-0.70;99.90
52879;DHT22;38747;53.140;6.498;2023-02-15T07:25:58;-0.70;99.90
52879;DHT22;38747;53.140;6.498;2023-02-15T07:28:24;-0.60;99.90
52879;DHT22;38747;53.140;6.498;2023-02-15T07:30:49;-0.60;99.90
52879;DHT22;38747;53.140;6.498;2023-02-15T07:33:15;-0.50;99.90
52879;DHT22;38747;53.140;6.498;2023-02-15T07:35:51;-0.50;99.90
52879;DHT22;38747;53.140;6.498;2023-02-15T07:38:18;-0.40;99.90
52879;DHT22;38747;53.140;6.498;2023-02-15T07:40:44;-0.30;99.90
52879;DHT22;38747;53.140;6.498;2023-02-15T07:43:11;-0.30;99.90
52879;DHT22;38747;53.140;6.498;2023-02-15T07:45:37;-0.10;99.90
52879;DHT22;38747;53.140;6.498;2023-02-15T07:48:04;-0.10;99.90
52879;DHT22;38747;53.140;6.498;2023-02-15T07:50:30;0.00;99.90
52879;DHT22;38747;53.140;6.498;2023-02-15T07:52:56;0.10;99.90
52879;DHT22;38747;53.140;6.498;2023-02-15T07:55:21;0.20;99.90
52879;DHT22;38747;53.140;6.498;2023-02-15T07:57:48;0.30;99.90
52879;DHT22;38747;53.140;6.498;2023-02-15T08:00:19;0.40;99.90
52879;DHT22;38747;53.140;6.498;2023-02-15T08:02:56;0.40;99.90
52879;DHT22;38747;53.140;6.498;2023-02-15T08:05:42;0.50;99.90
52879;DHT22;38747;53.140;6.498;2023-02-15T08:08:09;0.50;99.90
52879;DHT22;38747;53.140;6.498;2023-02-15T08:11:17;0.60;99.90
52879;DHT22;38747;53.140;6.498;2023-02-15T08:14:15;0.60;99.90
52879;DHT22;38747;53.140;6.498;2023-02-15T08:19:09;0.80;99.90
52879;DHT22;38747;53.140;6.498;2023-02-15T08:21:38;0.90;99.90
52879;DHT22;38747;53.140;6.498;2023-02-15T08:24:06;1.00;99.90
52879;DHT22;38747;53.140;6.498;2023-02-15T08:26:32;1.10;99.90
52879;DHT22;38747;53.140;6.498;2023-02-15T08:28:58;1.20;99.90
52879;DHT22;38747;53.140;6.498;2023-02-15T08:31:24;1.30;99.90
52879;DHT22;38747;53.140;6.498;2023-02-15T08:33:52;1.40;99.90
52879;DHT22;38747;53.140;6.498;2023-02-15T08:36:20;1.50;99.90
52879;DHT22;38747;53.140;6.498;2023-02-15T08:38:46;1.50;99.90
52879;DHT22;38747;53.140;6.498;2023-02-15T08:41:17;1.60;99.90
52879;DHT22;38747;53.140;6.498;2023-02-15T08:43:46;1.60;99.90
52879;DHT22;38747;53.140;6.498;2023-02-15T08:46:12;1.70;99.90
52879;DHT22;38747;53.140;6.498;2023-02-15T08:48:38;1.80;99.90
52879;DHT22;38747;53.140;6.498;2023-02-15T08:51:09;1.80;99.90
52879;DHT22;38747;53.140;6.498;2023-02-15T08:53:37;1.90;99.90
52879;DHT22;38747;53.140;6.498;2023-02-15T08:56:03;1.90;99.90
52879;DHT22;38747;53.140;6.498;2023-02-15T08:58:29;2.00;99.90
52879;DHT22;38747;53.140;6.498;2023-02-15T09:00:56;2.10;99.90
52879;DHT22;38747;53.140;6.498;2023-02-15T09:03:21;2.20;99.90
52879;DHT22;38747;53.140;6.498;2023-02-15T09:05:47;2.20;99.90
52879;DHT22;38747;53.140;6.498;2023-02-15T09:08:13;2.30;99.90
52879;DHT22;38747;53.140;6.498;2023-02-15T09:10:38;2.40;99.90
52879;DHT22;38747;53.140;6.498;2023-02-15T09:13:04;2.40;99.90
52879;DHT22;38747;53.140;6.498;2023-02-15T09:15:30;2.40;99.90
52879;DHT22;38747;53.140;6.498;2023-02-15T09:17:55;2.50;99.90
52879;DHT22;38747;53.140;6.498;2023-02-15T09:20:21;2.60;99.90
52879;DHT22;38747;53.140;6.498;2023-02-15T09:22:48;2.60;99.90
52879;DHT22;38747;53.140;6.498;2023-02-15T09:25:13;2.70;99.90
52879;DHT22;38747;53.140;6.498;2023-02-15T09:27:39;2.80;99.90
52879;DHT22;38747;53.140;6.498;2023-02-15T09:30:06;2.90;99.90
52879;DHT22;38747;53.140;6.498;2023-02-15T09:32:31;2.90;99.90
52879;DHT22;38747;53.140;6.498;2023-02-15T09:34:57;3.00;99.90
52879;DHT22;38747;53.140;6.498;2023-02-15T09:37:23;3.00;99.90
52879;DHT22;38747;53.140;6.498;2023-02-15T09:39:48;3.10;99.90
52879;DHT22;38747;53.140;6.498;2023-02-15T09:42:30;3.20;99.90
52879;DHT22;38747;53.140;6.498;2023-02-15T09:45:22;3.30;99.90
52879;DHT22;38747;53.140;6.498;2023-02-15T09:48:12;3.40;99.90
52879;DHT22;38747;53.140;6.498;2023-02-15T09:56:18;3.70;99.90
52879;DHT22;38747;53.140;6.498;2023-02-15T09:59:04;3.80;99.90
52879;DHT22;38747;53.140;6.498;2023-02-15T10:04:44;4.00;99.90
52879;DHT22;38747;53.140;6.498;2023-02-15T10:09:56;4.10;99.90
52879;DHT22;38747;53.140;6.498;2023-02-15T10:15:28;4.30;99.90
52879;DHT22;38747;53.140;6.498;2023-02-15T10:18:14;4.40;99.90
52879;DHT22;38747;53.140;6.498;2023-02-15T10:26:23;4.60;99.90
52879;DHT22;38747;53.140;6.498;2023-02-15T10:29:39;4.70;99.90
52879;DHT22;38747;53.140;6.498;2023-02-15T10:34:48;4.90;99.90
52879;DHT22;38747;53.140;6.498;2023-02-15T10:50:47;5.50;99.90
52879;DHT22;38747;53.140;6.498;2023-02-15T10:53:42;5.60;99.90
52879;DHT22;38747;53.140;6.498;2023-02-15T11:01:58;6.00;99.90
52879;DHT22;38747;53.140;6.498;2023-02-15T11:04:48;6.10;99.90
52879;DHT22;38747;53.140;6.498;2023-02-15T11:07:41;6.20;99.90
52879;DHT22;38747;53.140;6.498;2023-02-15T11:13:09;6.40;99.90
52879;DHT22;38747;53.140;6.498;2023-02-15T11:16:16;6.50;99.90
52879;DHT22;38747;53.140;6.498;2023-02-15T11:18:57;6.70;99.90
52879;DHT22;38747;53.140;6.498;2023-02-15T11:21:26;6.80;99.90
52879;DHT22;38747;53.140;6.498;2023-02-15T11:23:53;6.90;99.90
52879;DHT22;38747;53.140;6.498;2023-02-15T11:26:40;7.00;99.90
52879;DHT22;38747;53.140;6.498;2023-02-15T11:29:22;7.10;99.90
52879;DHT22;38747;53.140;6.498;2023-02-15T11:31:55;7.10;99.90
52879;DHT22;38747;53.140;6.498;2023-02-15T11:34:29;7.20;99.90
52879;DHT22;38747;53.140;6.498;2023-02-15T11:37:01;7.30;99.90
52879;DHT22;38747;53.140;6.498;2023-02-15T11:39:30;7.40;99.90
52879;DHT22;38747;53.140;6.498;2023-02-15T11:42:00;7.50;99.90
52879;DHT22;38747;53.140;6.498;2023-02-15T11:44:39;7.50;99.90
52879;DHT22;38747;53.140;6.498;2023-02-15T11:47:11;7.60;99.90
52879;DHT22;38747;53.140;6.498;2023-02-15T11:49:37;7.70;99.90
52879;DHT22;38747;53.140;6.498;2023-02-15T11:52:10;7.80;99.90
52879;DHT22;38747;53.140;6.498;2023-02-15T11:54:41;7.90;99.90
52879;DHT22;38747;53.140;6.498;2023-02-15T11:57:23;7.90;99.90
52879;DHT22;38747;53.140;6.498;2023-02-15T12:00:10;8.10;99.90
52879;DHT22;38747;53.140;6.498;2023-02-15T12:02:39;8.20;99.90
52879;DHT22;38747;53.140;6.498;2023-02-15T12:05:11;8.40;99.90
52879;DHT22;38747;53.140;6.498;2023-02-15T12:10:17;8.70;99.90
52879;DHT22;38747;53.140;6.498;2023-02-15T12:12:43;8.70;99.90
52879;DHT22;38747;53.140;6.498;2023-02-15T12:15:11;8.80;99.90
52879;DHT22;38747;53.140;6.498;2023-02-15T12:17:51;8.90;99.90
52879;DHT22;38747;53.140;6.498;2023-02-15T12:22:58;9.00;99.90
52879;DHT22;38747;53.140;6.498;2023-02-15T12:27:56;9.00;99.90
52879;DHT22;38747;53.140;6.498;2023-02-15T12:30:27;9.00;99.90
52879;DHT22;38747;53.140;6.498;2023-02-15T12:33:42;8.90;99.90
52879;DHT22;38747;53.140;6.498;2023-02-15T12:35:44;9.00;99.90
52879;DHT22;38747;53.140;6.498;2023-02-15T12:40:35;9.10;99.90
52879;DHT22;38747;53.140;6.498;2023-02-15T12:43:02;9.20;99.90
52879;DHT22;38747;53.140;6.498;2023-02-15T12:45:37;9.20;99.90
52879;DHT22;38747;53.140;6.498;2023-02-15T12:50:40;9.40;99.90
52879;DHT22;38747;53.140;6.498;2023-02-15T12:53:16;9.40;99.90
52879;DHT22;38747;53.140;6.498;2023-02-15T12:55:59;9.50;99.90
52879;DHT22;38747;53.140;6.498;2023-02-15T12:58:27;9.60;99.90
52879;DHT22;38747;53.140;6.498;2023-02-15T13:03:35;9.50;99.90
52879;DHT22;38747;53.140;6.498;2023-02-15T13:06:02;9.50;99.90
52879;DHT22;38747;53.140;6.498;2023-02-15T13:08:39;9.50;99.90
52879;DHT22;38747;53.140;6.498;2023-02-15T13:11:11;9.40;99.90
52879;DHT22;38747;53.140;6.498;2023-02-15T13:13:58;9.40;99.90
52879;DHT22;38747;53.140;6.498;2023-02-15T13:16:37;9.40;99.90
52879;DHT22;38747;53.140;6.498;2023-02-15T13:19:15;9.40;99.90
52879;DHT22;38747;53.140;6.498;2023-02-15T13:21:44;9.40;99.90
52879;DHT22;38747;53.140;6.498;2023-02-15T13:24:18;9.50;99.90
52879;DHT22;38747;53.140;6.498;2023-02-15T13:26:46;9.50;99.90
52879;DHT22;38747;53.140;6.498;2023-02-15T13:29:36;9.60;99.90
52879;DHT22;38747;53.140;6.498;2023-02-15T13:32:16;9.60;99.90
52879;DHT22;38747;53.140;6.498;2023-02-15T13:34:47;9.70;99.90
52879;DHT22;38747;53.140;6.498;2023-02-15T13:37:20;9.70;99.90
52879;DHT22;38747;53.140;6.498;2023-02-15T13:42:36;9.80;99.90
52879;DHT22;38747;53.140;6.498;2023-02-15T13:45:30;9.80;99.90
52879;DHT22;38747;53.140;6.498;2023-02-15T13:53:24;9.80;99.90
52879;DHT22;38747;53.140;6.498;2023-02-15T13:59:12;9.80;99.90
52879;DHT22;38747;53.140;6.498;2023-02-15T14:01:58;9.80;99.90
52879;DHT22;38747;53.140;6.498;2023-02-15T14:23:52;9.90;99.90
52879;DHT22;38747;53.140;6.498;2023-02-15T14:26:41;9.90;99.90
52879;DHT22;38747;53.140;6.498;2023-02-15T14:32:16;9.90;99.90
52879;DHT22;38747;53.140;6.498;2023-02-15T14:34:50;9.90;99.90
52879;DHT22;38747;53.140;6.498;2023-02-15T14:37:40;9.90;99.90
52879;DHT22;38747;53.140;6.498;2023-02-15T14:40:26;9.90;99.90
52879;DHT22;38747;53.140;6.498;2023-02-15T14:45:57;9.80;99.90
52879;DHT22;38747;53.140;6.498;2023-02-15T14:48:30;9.80;99.90
52879;DHT22;38747;53.140;6.498;2023-02-15T14:50:56;9.80;99.90
52879;DHT22;38747;53.140;6.498;2023-02-15T14:53:36;9.80;99.90
52879;DHT22;38747;53.140;6.498;2023-02-15T15:01:29;9.70;99.90
52879;DHT22;38747;53.140;6.498;2023-02-15T15:04:00;9.60;99.90
52879;DHT22;38747;53.140;6.498;2023-02-15T15:06:39;9.50;99.90
52879;DHT22;38747;53.140;6.498;2023-02-15T15:09:10;9.50;99.90
52879;DHT22;38747;53.140;6.498;2023-02-15T15:11:45;9.40;99.90
52879;DHT22;38747;53.140;6.498;2023-02-15T15:17:01;9.30;99.90
52879;DHT22;38747;53.140;6.498;2023-02-15T15:19:57;9.30;99.90
52879;DHT22;38747;53.140;6.498;2023-02-15T15:22:25;9.20;99.90
52879;DHT22;38747;53.140;6.498;2023-02-15T15:25:02;9.20;99.90
52879;DHT22;38747;53.140;6.498;2023-02-15T15:27:51;9.10;99.90
52879;DHT22;38747;53.140;6.498;2023-02-15T15:36:05;9.00;99.90
52879;DHT22;38747;53.140;6.498;2023-02-15T15:48:03;8.80;99.90
52879;DHT22;38747;53.140;6.498;2023-02-15T15:50:34;8.70;99.90
52879;DHT22;38747;53.140;6.498;2023-02-15T15:53:01;8.60;99.90
52879;DHT22;38747;53.140;6.498;2023-02-15T15:55:29;8.60;99.90
52879;DHT22;38747;53.140;6.498;2023-02-15T15:58:06;8.50;99.90
52879;DHT22;38747;53.140;6.498;2023-02-15T16:03:01;8.40;99.90
52879;DHT22;38747;53.140;6.498;2023-02-15T16:05:33;8.30;99.90
52879;DHT22;38747;53.140;6.498;2023-02-15T16:07:59;8.20;99.90
52879;DHT22;38747;53.140;6.498;2023-02-15T16:10:27;8.20;99.90
52879;DHT22;38747;53.140;6.498;2023-02-15T16:12:54;8.10;99.90
52879;DHT22;38747;53.140;6.498;2023-02-15T16:15:44;8.10;99.90
52879;DHT22;38747;53.140;6.498;2023-02-15T16:18:16;8.00;99.90
52879;DHT22;38747;53.140;6.498;2023-02-15T16:20:52;7.90;99.90
52879;DHT22;38747;53.140;6.498;2023-02-15T16:28:51;7.70;99.90
52879;DHT22;38747;53.140;6.498;2023-02-15T16:31:18;7.70;99.90
52879;DHT22;38747;53.140;6.498;2023-02-15T16:33:45;7.60;99.90
52879;DHT22;38747;53.140;6.498;2023-02-15T16:36:25;7.50;99.90
52879;DHT22;38747;53.140;6.498;2023-02-15T16:39:08;7.50;99.90
52879;DHT22;38747;53.140;6.498;2023-02-15T16:41:34;7.40;99.90
52879;DHT22;38747;53.140;6.498;2023-02-15T16:44:06;7.30;99.90
52879;DHT22;38747;53.140;6.498;2023-02-15T16:46:39;7.30;99.90
52879;DHT22;38747;53.140;6.498;2023-02-15T16:49:21;7.20;99.90
52879;DHT22;38747;53.140;6.498;2023-02-15T16:51:57;7.20;99.90
52879;DHT22;38747;53.140;6.498;2023-02-15T16:54:24;7.10;99.90
52879;DHT22;38747;53.140;6.498;2023-02-15T16:56:51;7.10;99.90
52879;DHT22;38747;53.140;6.498;2023-02-15T16:59:28;7.10;99.90
52879;DHT22;38747;53.140;6.498;2023-02-15T17:01:55;7.00;99.90
52879;DHT22;38747;53.140;6.498;2023-02-15T17:07:06;6.90;99.90
52879;DHT22;38747;53.140;6.498;2023-02-15T17:09:33;6.90;99.90
52879;DHT22;38747;53.140;6.498;2023-02-15T17:11:59;6.90;99.90
52879;DHT22;38747;53.140;6.498;2023-02-15T17:14:29;6.80;99.90
52879;DHT22;38747;53.140;6.498;2023-02-15T17:17:00;6.80;99.90
52879;DHT22;38747;53.140;6.498;2023-02-15T17:19:32;6.80;99.90
52879;DHT22;38747;53.140;6.498;2023-02-15T17:22:04;6.70;99.90
52879;DHT22;38747;53.140;6.498;2023-02-15T17:24:38;6.70;99.90
52879;DHT22;38747;53.140;6.498;2023-02-15T17:27:20;6.70;99.90
52879;DHT22;38747;53.140;6.498;2023-02-15T17:29:54;6.60;99.90
52879;DHT22;38747;53.140;6.498;2023-02-15T17:32:25;6.60;99.90
52879;DHT22;38747;53.140;6.498;2023-02-15T17:37:43;6.40;99.90
52879;DHT22;38747;53.140;6.498;2023-02-15T17:40:22;6.30;99.90
52879;DHT22;38747;53.140;6.498;2023-02-15T17:42:48;6.20;99.90
52879;DHT22;38747;53.140;6.498;2023-02-15T17:45:14;6.10;99.90
52879;DHT22;38747;53.140;6.498;2023-02-15T17:47:40;6.00;99.90
52879;DHT22;38747;53.140;6.498;2023-02-15T17:50:07;6.00;99.90
52879;DHT22;38747;53.140;6.498;2023-02-15T17:52:33;6.00;99.90
52879;DHT22;38747;53.140;6.498;2023-02-15T17:55:07;6.00;99.90
52879;DHT22;38747;53.140;6.498;2023-02-15T17:57:56;6.00;99.90
52879;DHT22;38747;53.140;6.498;2023-02-15T18:00:21;6.00;99.90
52879;DHT22;38747;53.140;6.498;2023-02-15T18:03:09;6.00;99.90
52879;DHT22;38747;53.140;6.498;2023-02-15T18:05:54;6.10;99.90
52879;DHT22;38747;53.140;6.498;2023-02-15T18:08:38;6.10;99.90
52879;DHT22;38747;53.140;6.498;2023-02-15T18:11:22;6.10;99.90
52879;DHT22;38747;53.140;6.498;2023-02-15T18:14:05;6.00;99.90
52879;DHT22;38747;53.140;6.498;2023-02-15T18:16:37;6.00;99.90
52879;DHT22;38747;53.140;6.498;2023-02-15T18:19:04;6.00;99.90
52879;DHT22;38747;53.140;6.498;2023-02-15T18:21:31;6.00;99.90
52879;DHT22;38747;53.140;6.498;2023-02-15T18:23:57;6.00;99.90
52879;DHT22;38747;53.140;6.498;2023-02-15T18:26:24;6.00;99.90
52879;DHT22;38747;53.140;6.498;2023-02-15T18:28:51;6.00;99.90
52879;DHT22;38747;53.140;6.498;2023-02-15T18:31:18;6.00;99.90
52879;DHT22;38747;53.140;6.498;2023-02-15T18:33:53;5.90;99.90
52879;DHT22;38747;53.140;6.498;2023-02-15T18:36:26;6.00;99.90
52879;DHT22;38747;53.140;6.498;2023-02-15T18:38:53;5.90;99.90
52879;DHT22;38747;53.140;6.498;2023-02-15T18:41:20;5.90;99.90
52879;DHT22;38747;53.140;6.498;2023-02-15T18:43:48;5.90;99.90
52879;DHT22;38747;53.140;6.498;2023-02-15T18:46:15;5.90;99.90
52879;DHT22;38747;53.140;6.498;2023-02-15T18:48:41;5.80;99.90
52879;DHT22;38747;53.140;6.498;2023-02-15T18:51:19;5.90;99.90
52879;DHT22;38747;53.140;6.498;2023-02-15T18:53:47;5.90;99.90
52879;DHT22;38747;53.140;6.498;2023-02-15T18:56:15;5.90;99.90
52879;DHT22;38747;53.140;6.498;2023-02-15T18:58:42;5.80;99.90
52879;DHT22;38747;53.140;6.498;2023-02-15T19:01:17;5.90;99.90
52879;DHT22;38747;53.140;6.498;2023-02-15T19:03:45;5.80;99.90
52879;DHT22;38747;53.140;6.498;2023-02-15T19:06:12;5.80;99.90
52879;DHT22;38747;53.140;6.498;2023-02-15T19:08:38;5.80;99.90
52879;DHT22;38747;53.140;6.498;2023-02-15T19:11:04;5.80;99.90
52879;DHT22;38747;53.140;6.498;2023-02-15T19:13:30;5.80;99.90
52879;DHT22;38747;53.140;6.498;2023-02-15T19:15:56;5.80;99.90
52879;DHT22;38747;53.140;6.498;2023-02-15T19:18:23;5.70;99.90
52879;DHT22;38747;53.140;6.498;2023-02-15T19:20:48;5.70;99.90
52879;DHT22;38747;53.140;6.498;2023-02-15T19:23:20;5.70;99.90
52879;DHT22;38747;53.140;6.498;2023-02-15T19:25:47;5.70;99.90
52879;DHT22;38747;53.140;6.498;2023-02-15T19:28:25;5.70;99.90
52879;DHT22;38747;53.140;6.498;2023-02-15T19:30:53;5.70;99.90
52879;DHT22;38747;53.140;6.498;2023-02-15T19:33:19;5.80;99.90
52879;DHT22;38747;53.140;6.498;2023-02-15T19:35:47;5.70;99.90
52879;DHT22;38747;53.140;6.498;2023-02-15T19:38:24;5.70;99.90
52879;DHT22;38747;53.140;6.498;2023-02-15T19:40:50;5.70;99.90
52879;DHT22;38747;53.140;6.498;2023-02-15T19:43:20;5.70;99.90
52879;DHT22;38747;53.140;6.498;2023-02-15T19:45:51;5.70;99.90
52879;DHT22;38747;53.140;6.498;2023-02-15T19:48:17;5.70;99.90
52879;DHT22;38747;53.140;6.498;2023-02-15T19:50:45;5.70;99.90
52879;DHT22;38747;53.140;6.498;2023-02-15T19:53:20;5.70;99.90
52879;DHT22;38747;53.140;6.498;2023-02-15T19:55:46;5.60;99.90
52879;DHT22;38747;53.140;6.498;2023-02-15T19:58:12;5.70;99.90
52879;DHT22;38747;53.140;6.498;2023-02-15T20:00:38;5.70;99.90
52879;DHT22;38747;53.140;6.498;2023-02-15T20:03:05;5.60;99.90
52879;DHT22;38747;53.140;6.498;2023-02-15T20:05:31;5.70;99.90
52879;DHT22;38747;53.140;6.498;2023-02-15T20:08:00;5.70;99.90
52879;DHT22;38747;53.140;6.498;2023-02-15T20:10:30;5.70;99.90
52879;DHT22;38747;53.140;6.498;2023-02-15T20:12:56;5.70;99.90
52879;DHT22;38747;53.140;6.498;2023-02-15T20:15:27;5.60;99.90
52879;DHT22;38747;53.140;6.498;2023-02-15T20:17:54;5.60;99.90
52879;DHT22;38747;53.140;6.498;2023-02-15T20:20:22;5.60;99.90
52879;DHT22;38747;53.140;6.498;2023-02-15T20:22:50;5.60;99.90
52879;DHT22;38747;53.140;6.498;2023-02-15T20:25:23;5.60;99.90
52879;DHT22;38747;53.140;6.498;2023-02-15T20:27:49;5.70;99.90
52879;DHT22;38747;53.140;6.498;2023-02-15T20:30:24;5.60;99.90
52879;DHT22;38747;53.140;6.498;2023-02-15T20:32:50;5.70;99.90
52879;DHT22;38747;53.140;6.498;2023-02-15T20:35:18;5.70;99.90
52879;DHT22;38747;53.140;6.498;2023-02-15T20:37:48;5.70;99.90
52879;DHT22;38747;53.140;6.498;2023-02-15T20:42:43;5.70;99.90
52879;DHT22;38747;53.140;6.498;2023-02-15T20:45:24;5.70;99.90
52879;DHT22;38747;53.140;6.498;2023-02-15T20:47:51;5.70;99.90
52879;DHT22;38747;53.140;6.498;2023-02-15T20:50:28;5.70;99.90
52879;DHT22;38747;53.140;6.498;2023-02-15T20:52:56;5.70;99.90
52879;DHT22;38747;53.140;6.498;2023-02-15T20:55:27;5.80;99.90
52879;DHT22;38747;53.140;6.498;2023-02-15T20:57:53;5.80;99.90
52879;DHT22;38747;53.140;6.498;2023-02-15T21:00:22;5.80;99.90
52879;DHT22;38747;53.140;6.498;2023-02-15T21:02:50;5.80;99.90
52879;DHT22;38747;53.140;6.498;2023-02-15T21:05:25;5.80;99.90
52879;DHT22;38747;53.140;6.498;2023-02-15T21:07:52;5.80;99.90
52879;DHT22;38747;53.140;6.498;2023-02-15T21:10:24;5.80;99.90
52879;DHT22;38747;53.140;6.498;2023-02-15T21:12:51;5.80;99.90
52879;DHT22;38747;53.140;6.498;2023-02-15T21:17:52;5.70;99.90
52879;DHT22;38747;53.140;6.498;2023-02-15T21:20:18;5.70;99.90
52879;DHT22;38747;53.140;6.498;2023-02-15T21:22:44;5.60;99.90
52879;DHT22;38747;53.140;6.498;2023-02-15T21:25:14;5.60;99.90
52879;DHT22;38747;53.140;6.498;2023-02-15T21:27:42;5.60;99.90
52879;DHT22;38747;53.140;6.498;2023-02-15T21:30:17;5.60;99.90
52879;DHT22;38747;53.140;6.498;2023-02-15T21:32:43;5.50;99.90
52879;DHT22;38747;53.140;6.498;2023-02-15T21:35:13;5.40;99.90
52879;DHT22;38747;53.140;6.498;2023-02-15T21:37:41;5.40;99.90
52879;DHT22;38747;53.140;6.498;2023-02-15T21:40:16;5.40;99.90
52879;DHT22;38747;53.140;6.498;2023-02-15T21:42:43;5.40;99.90
52879;DHT22;38747;53.140;6.498;2023-02-15T21:45:27;5.40;99.90
52879;DHT22;38747;53.140;6.498;2023-02-15T21:48:11;5.40;99.90
52879;DHT22;38747;53.140;6.498;2023-02-15T21:50:37;5.30;99.90
52879;DHT22;38747;53.140;6.498;2023-02-15T21:53:28;5.30;99.90
52879;DHT22;38747;53.140;6.498;2023-02-15T21:55:57;5.20;99.90
52879;DHT22;38747;53.140;6.498;2023-02-15T21:58:25;5.20;99.90
52879;DHT22;38747;53.140;6.498;2023-02-15T22:00:53;5.20;99.90
52879;DHT22;38747;53.140;6.498;2023-02-15T22:03:24;5.20;99.90
52879;DHT22;38747;53.140;6.498;2023-02-15T22:05:50;5.20;99.90
52879;DHT22;38747;53.140;6.498;2023-02-15T22:08:16;5.20;99.90
52879;DHT22;38747;53.140;6.498;2023-02-15T22:10:42;5.10;99.90
52879;DHT22;38747;53.140;6.498;2023-02-15T22:13:13;5.10;99.90
52879;DHT22;38747;53.140;6.498;2023-02-15T22:15:39;5.10;99.90
52879;DHT22;38747;53.140;6.498;2023-02-15T22:18:18;5.20;99.90
52879;DHT22;38747;53.140;6.498;2023-02-15T22:20:44;5.20;99.90
52879;DHT22;38747;53.140;6.498;2023-02-15T22:23:10;5.20;99.90
52879;DHT22;38747;53.140;6.498;2023-02-15T22:25:36;5.20;99.90
52879;DHT22;38747;53.140;6.498;2023-02-15T22:28:01;5.20;99.90
52879;DHT22;38747;53.140;6.498;2023-02-15T22:30:30;5.10;99.90
52879;DHT22;38747;53.140;6.498;2023-02-15T22:32:57;5.10;99.90
52879;DHT22;38747;53.140;6.498;2023-02-15T22:35:29;5.10;99.90
52879;DHT22;38747;53.140;6.498;2023-02-15T22:37:55;5.10;99.90
52879;DHT22;38747;53.140;6.498;2023-02-15T22:40:26;5.10;99.90
52879;DHT22;38747;53.140;6.498;2023-02-15T22:42:53;5.10;99.90
52879;DHT22;38747;53.140;6.498;2023-02-15T22:45:22;5.10;99.90
52879;DHT22;38747;53.140;6.498;2023-02-15T22:47:51;5.10;99.90
52879;DHT22;38747;53.140;6.498;2023-02-15T22:50:23;5.00;99.90
52879;DHT22;38747;53.140;6.498;2023-02-15T22:52:49;5.10;99.90
52879;DHT22;38747;53.140;6.498;2023-02-15T22:55:18;5.00;99.90